createdAt,value
2018-02-17T00:00:22.634Z,1.93
2018-02-17T00:02:50.124Z,1.87
2018-02-17T00:05:17.546Z,2.50
2018-02-17T00:07:44.988Z,4.17
2018-02-17T00:10:12.466Z,6.47
2018-02-17T00:12:39.891Z,2.60
2018-02-17T00:15:07.334Z,2.33
2018-02-17T00:17:34.824Z,2.00
2018-02-17T00:20:02.247Z,2.63
2018-02-17T00:22:29.691Z,1.80
2018-02-17T00:24:57.159Z,2.13
2018-02-17T00:27:24.647Z,2.77
2018-02-17T00:29:52.079Z,2.50
2018-02-17T00:32:19.511Z,2.90
2018-02-17T00:34:46.942Z,2.00
2018-02-17T00:37:14.379Z,3.00
2018-02-17T00:39:41.855Z,2.27
2018-02-17T00:42:09.343Z,2.70
2018-02-17T00:44:36.827Z,1.60
2018-02-17T00:47:04.772Z,1.63
2018-02-17T00:49:32.200Z,2.37
2018-02-17T00:51:59.630Z,2.63
2018-02-17T00:54:27.163Z,2.77
2018-02-17T00:56:54.591Z,2.97
2018-02-17T00:59:22.026Z,2.50
2018-02-17T01:01:49.454Z,2.60
2018-02-17T01:04:16.888Z,2.27
2018-02-17T01:06:44.310Z,3.20
2018-02-17T01:09:11.748Z,3.17
2018-02-17T01:11:39.174Z,2.20
2018-02-17T01:14:06.592Z,2.70
2018-02-17T01:16:34.795Z,2.87
2018-02-17T01:19:03.659Z,2.10
2018-02-17T01:21:31.095Z,2.40
2018-02-17T01:23:59.283Z,2.50
2018-02-17T01:26:27.472Z,2.43
2018-02-17T01:28:54.991Z,2.20
2018-02-17T01:31:22.428Z,2.07
2018-02-17T01:33:49.851Z,2.00
2018-02-17T01:36:17.271Z,1.90
2018-02-17T01:38:44.703Z,2.40
2018-02-17T01:41:12.895Z,1.67
2018-02-17T01:43:41.091Z,1.80
2018-02-17T01:46:09.279Z,1.93
2018-02-17T01:48:36.799Z,2.20
2018-02-17T01:51:04.702Z,4.00
2018-02-17T01:53:32.135Z,11.23
2018-02-17T01:55:59.718Z,5.27
2018-02-17T01:58:27.143Z,9.40
2018-02-17T02:00:54.575Z,3.93
2018-02-17T02:03:22.107Z,2.60
2018-02-17T02:05:49.547Z,2.63
2018-02-17T02:08:17.739Z,1.97
2018-02-17T02:10:45.159Z,2.60
2018-02-17T02:13:12.596Z,2.03
2018-02-17T02:15:40.023Z,2.33
2018-02-17T02:18:07.508Z,2.47
2018-02-17T02:20:34.939Z,2.33
2018-02-17T02:23:02.367Z,2.30
2018-02-17T02:25:29.857Z,1.70
2018-02-17T02:27:58.052Z,1.93
2018-02-17T02:30:25.471Z,2.60
2018-02-17T02:32:53.013Z,2.40
2018-02-17T02:35:20.494Z,2.00
2018-02-17T02:37:47.972Z,2.27
2018-02-17T02:40:15.458Z,2.50
2018-02-17T02:42:42.884Z,2.90
2018-02-17T02:45:10.319Z,2.37
2018-02-17T02:47:37.807Z,2.60
2018-02-17T02:50:05.284Z,2.90
2018-02-17T02:52:33.004Z,2.60
2018-02-17T02:55:00.419Z,2.50
2018-02-17T02:57:28.651Z,2.03
2018-02-17T02:59:56.100Z,2.67
2018-02-17T03:02:24.288Z,2.47
2018-02-17T03:04:51.809Z,2.80
2018-02-17T03:07:19.243Z,2.27
2018-02-17T03:09:46.774Z,2.80
2018-02-17T03:12:14.203Z,2.00
2018-02-17T03:14:42.386Z,2.43
2018-02-17T03:17:09.938Z,2.80
2018-02-17T03:19:37.419Z,2.20
2018-02-17T03:22:04.848Z,2.77
2018-02-17T03:24:32.281Z,3.57
2018-02-17T03:26:59.698Z,2.70
2018-02-17T03:29:27.127Z,3.33
2018-02-17T03:31:54.615Z,2.97
2018-02-17T03:34:22.111Z,3.00
2018-02-17T03:36:49.591Z,3.50
2018-02-17T03:39:17.007Z,3.40
2018-02-17T03:41:44.448Z,3.40
2018-02-17T03:44:11.879Z,3.47
2018-02-17T03:46:40.133Z,4.50
2018-02-17T03:49:07.559Z,9.00
2018-02-17T03:51:35.746Z,9.17
2018-02-17T03:54:04.326Z,7.33
2018-02-17T03:56:31.791Z,16.00
2018-02-17T03:58:59.270Z,9.47
2018-02-17T04:01:26.706Z,6.80
2018-02-17T04:03:54.131Z,7.20
2018-02-17T04:06:21.567Z,7.10
2018-02-17T04:08:49.094Z,7.37
2018-02-17T04:11:16.579Z,7.43
2018-02-17T04:13:44.059Z,6.53
2018-02-17T04:16:11.546Z,7.90
2018-02-17T04:18:38.975Z,6.50
2018-02-17T04:21:06.504Z,7.60
2018-02-17T04:23:34.088Z,7.53
2018-02-17T04:26:01.515Z,6.67
2018-02-17T04:28:28.954Z,7.47
2018-02-17T04:30:56.418Z,6.80
2018-02-17T04:33:23.847Z,6.40
2018-02-17T04:35:51.392Z,7.30
2018-02-17T04:38:18.839Z,6.03
2018-02-17T04:40:51.684Z,6.50
2018-02-17T04:43:19.538Z,6.33
2018-02-17T04:45:50.383Z,6.53
2018-02-17T04:48:19.250Z,6.60
2018-02-17T04:50:47.575Z,7.57
2018-02-17T04:53:18.618Z,6.90
2018-02-17T04:55:51.711Z,6.60
2018-02-17T04:58:21.583Z,6.23
2018-02-17T05:00:54.791Z,6.57
2018-02-17T05:06:30.759Z,6.40
2018-02-17T05:09:07.543Z,6.37
2018-02-17T05:11:35.758Z,8.10
2018-02-17T05:14:03.192Z,6.20
2018-02-17T05:16:37.071Z,6.43
2018-02-17T05:19:10.100Z,6.60
2018-02-17T05:21:38.467Z,6.60
2018-02-17T05:24:08.367Z,7.17
2018-02-17T05:26:54.256Z,6.63
2018-02-17T05:29:26.959Z,6.70
2018-02-17T05:31:57.862Z,7.10
2018-02-17T05:34:30.073Z,6.77
2018-02-17T05:36:58.267Z,7.47
2018-02-17T05:39:41.495Z,8.40
2018-02-17T05:42:13.604Z,6.33
2018-02-17T05:44:47.443Z,6.57
2018-02-17T05:47:31.583Z,7.77
2018-02-17T05:50:01.577Z,6.90
2018-02-17T05:52:29.781Z,7.87
2018-02-17T05:54:57.264Z,7.57
2018-02-17T05:57:24.705Z,7.90
2018-02-17T05:59:52.180Z,6.27
2018-02-17T06:02:19.613Z,6.50
2018-02-17T06:04:47.056Z,6.23
2018-02-17T06:07:14.487Z,7.00
2018-02-17T06:09:42.716Z,7.90
2018-02-17T06:12:10.184Z,8.17
2018-02-17T06:14:37.620Z,8.80
2018-02-17T06:17:05.068Z,8.90
2018-02-17T06:19:32.539Z,7.40
2018-02-17T06:21:59.995Z,6.47
2018-02-17T06:24:27.458Z,5.73
2018-02-17T06:26:54.912Z,8.30
2018-02-17T06:29:22.373Z,7.60
2018-02-17T06:31:49.832Z,7.17
2018-02-17T06:34:17.396Z,6.80
2018-02-17T06:36:44.852Z,6.50
2018-02-17T06:39:12.303Z,6.87
2018-02-17T06:41:39.757Z,6.90
2018-02-17T06:44:07.188Z,6.90
2018-02-17T06:46:34.688Z,6.67
2018-02-17T06:49:02.135Z,6.67
2018-02-17T06:51:29.582Z,7.00
2018-02-17T06:53:57.168Z,6.53
2018-02-17T06:56:24.616Z,7.00
2018-02-17T06:58:52.163Z,6.53
2018-02-17T07:01:19.944Z,6.40
2018-02-17T07:03:47.488Z,7.90
2018-02-17T07:06:14.917Z,6.87
2018-02-17T07:08:42.344Z,5.90
2018-02-17T07:11:10.589Z,7.20
2018-02-17T07:13:38.126Z,6.33
2018-02-17T07:16:05.596Z,7.23
2018-02-17T07:18:33.143Z,6.43
2018-02-17T07:21:00.581Z,6.60
2018-02-17T07:23:28.007Z,7.07
2018-02-17T07:25:56.220Z,6.80
2018-02-17T07:28:23.663Z,6.40
2018-02-17T07:30:51.243Z,7.60
2018-02-17T07:33:18.691Z,6.67
2018-02-17T07:35:46.127Z,6.40
2018-02-17T07:38:13.619Z,9.27
2018-02-17T07:40:41.076Z,7.00
2018-02-17T07:43:08.552Z,7.83
2018-02-17T07:45:35.979Z,6.40
2018-02-17T07:48:03.421Z,6.67
2018-02-17T07:50:30.902Z,5.87
2018-02-17T07:52:58.475Z,6.50
2018-02-17T07:55:26.021Z,6.30
2018-02-17T07:57:53.906Z,6.80
2018-02-17T08:00:21.448Z,6.10
2018-02-17T08:02:48.905Z,5.97
2018-02-17T08:05:16.332Z,5.37
2018-02-17T08:07:43.762Z,6.43
2018-02-17T08:10:11.963Z,5.87
2018-02-17T08:12:39.447Z,5.30
2018-02-17T08:15:06.892Z,6.00
2018-02-17T08:17:34.351Z,6.40
2018-02-17T08:20:02.516Z,6.03
2018-02-17T08:22:29.956Z,7.07
2018-02-17T08:24:57.463Z,6.60
2018-02-17T08:27:24.904Z,6.93
2018-02-17T08:29:52.363Z,6.37
2018-02-17T08:32:19.816Z,6.40
2018-02-17T08:34:47.252Z,7.67
2018-02-17T08:37:14.682Z,7.30
2018-02-17T08:39:42.902Z,6.10
2018-02-17T08:42:10.327Z,7.33
2018-02-17T08:44:37.758Z,6.33
2018-02-17T08:47:06.100Z,7.63
2018-02-17T08:49:33.960Z,6.60
2018-02-17T08:52:01.403Z,8.40
2018-02-17T08:54:28.855Z,7.50
2018-02-17T08:56:56.336Z,6.90
2018-02-17T08:59:23.788Z,8.10
2018-02-17T09:01:51.248Z,7.33
2018-02-17T09:04:18.703Z,6.57
2018-02-17T09:06:46.159Z,7.53
2018-02-17T09:09:13.595Z,6.90
2018-02-17T09:11:41.028Z,6.50
2018-02-17T09:14:09.248Z,6.30
2018-02-17T09:16:36.687Z,7.13
2018-02-17T09:19:04.160Z,8.97
2018-02-17T09:21:31.725Z,7.97
2018-02-17T09:23:59.622Z,7.20
2018-02-17T09:26:27.060Z,7.00
2018-02-17T09:28:54.498Z,7.30
2018-02-17T09:31:21.960Z,7.60
2018-02-17T09:33:49.412Z,7.30
2018-02-17T09:36:16.856Z,7.00
2018-02-17T09:38:44.335Z,7.77
2018-02-17T09:41:12.095Z,8.63
2018-02-17T09:43:39.881Z,7.83
2018-02-17T09:46:07.417Z,7.53
2018-02-17T09:48:34.856Z,7.53
2018-02-17T09:51:02.340Z,8.00
2018-02-17T09:53:29.769Z,9.27
2018-02-17T09:55:57.195Z,9.73
2018-02-17T09:58:25.399Z,9.07
2018-02-17T10:00:52.832Z,9.00
2018-02-17T10:03:20.332Z,8.33
2018-02-17T10:05:47.768Z,8.77
2018-02-17T10:08:15.252Z,8.50
2018-02-17T10:10:42.692Z,7.47
2018-02-17T10:13:10.133Z,8.13
2018-02-17T10:15:37.616Z,7.10
2018-02-17T10:18:05.052Z,7.73
2018-02-17T10:20:32.494Z,7.80
2018-02-17T10:22:59.992Z,7.17
2018-02-17T10:25:27.449Z,7.40
2018-02-17T10:27:54.916Z,6.80
2018-02-17T10:30:22.463Z,6.47
2018-02-17T10:32:49.922Z,6.73
2018-02-17T10:35:17.381Z,7.47
2018-02-17T10:37:44.820Z,6.90
2018-02-17T10:40:12.295Z,7.80
2018-02-17T10:42:39.730Z,7.30
2018-02-17T10:45:07.155Z,8.00
2018-02-17T10:47:34.595Z,7.40
2018-02-17T10:50:02.791Z,6.70
2018-02-17T10:52:30.232Z,5.97
2018-02-17T10:54:58.456Z,6.70
2018-02-17T10:57:25.884Z,6.87
2018-02-17T10:59:53.315Z,6.57
2018-02-17T11:02:21.520Z,6.60
2018-02-17T11:04:48.955Z,7.07
2018-02-17T11:07:17.180Z,6.53
2018-02-17T11:09:44.604Z,6.70
2018-02-17T11:12:12.040Z,7.00
2018-02-17T11:14:40.238Z,8.80
2018-02-17T11:17:07.674Z,7.80
2018-02-17T11:19:35.875Z,7.07
2018-02-17T11:22:03.309Z,7.07
2018-02-17T11:24:31.634Z,7.57
2018-02-17T11:26:59.088Z,6.80
2018-02-17T11:29:26.576Z,7.00
2018-02-17T11:31:54.121Z,7.30
2018-02-17T11:34:21.566Z,6.70
2018-02-17T11:36:49.022Z,7.37
2018-02-17T11:39:16.457Z,7.00
2018-02-17T11:41:43.908Z,7.03
2018-02-17T11:44:12.006Z,6.67
2018-02-17T11:46:39.467Z,7.30
2018-02-17T11:49:06.899Z,7.60
2018-02-17T11:51:34.379Z,6.77
2018-02-17T11:54:01.818Z,6.73
2018-02-17T11:56:29.249Z,6.73
2018-02-17T11:58:56.701Z,6.07
2018-02-17T12:01:25.024Z,6.10
2018-02-17T12:03:52.488Z,6.70
2018-02-17T12:06:19.938Z,6.40
2018-02-17T12:08:47.376Z,7.03
2018-02-17T12:11:14.815Z,6.53
2018-02-17T12:13:42.822Z,6.33
2018-02-17T12:16:10.273Z,6.40
2018-02-17T12:18:37.710Z,5.93
2018-02-17T12:21:05.194Z,7.07
2018-02-17T12:23:32.583Z,5.80
2018-02-17T12:26:00.780Z,6.03
2018-02-17T12:28:28.236Z,6.13
2018-02-17T12:30:56.456Z,6.20
2018-02-17T12:33:23.903Z,5.80
2018-02-17T12:35:51.339Z,6.13
2018-02-17T12:38:18.872Z,5.20
2018-02-17T12:40:47.080Z,6.50
2018-02-17T12:43:14.520Z,5.97
2018-02-17T12:45:41.999Z,5.67
2018-02-17T12:48:09.428Z,6.47
2018-02-17T12:50:36.866Z,5.67
2018-02-17T12:53:05.064Z,6.20
2018-02-17T12:55:32.500Z,5.57
2018-02-17T12:58:00.699Z,6.23
2018-02-17T13:00:28.140Z,5.90
2018-02-17T13:02:55.580Z,5.10
2018-02-17T13:05:23.780Z,9.93
2018-02-17T13:07:51.680Z,9.87
2018-02-17T13:10:19.107Z,17.27
2018-02-17T13:12:46.577Z,13.50
2018-02-17T13:15:14.020Z,27.33
2018-02-17T13:17:41.456Z,9.10
2018-02-17T13:20:09.680Z,7.37
2018-02-17T13:22:37.140Z,7.17
2018-02-17T13:25:04.596Z,8.40
2018-02-17T13:27:32.056Z,7.33
2018-02-17T13:29:59.507Z,8.50
2018-02-17T13:32:26.969Z,7.87
2018-02-17T13:34:54.424Z,8.13
2018-02-17T13:37:21.892Z,8.20
2018-02-17T13:39:49.327Z,9.03
2018-02-17T13:42:17.316Z,9.00
2018-02-17T13:44:44.763Z,8.80
2018-02-17T13:47:12.196Z,9.60
2018-02-17T13:49:39.655Z,8.80
2018-02-17T13:52:07.092Z,8.00
2018-02-17T13:54:35.332Z,8.00
2018-02-17T13:57:04.303Z,9.40
2018-02-17T13:59:31.733Z,8.93
2018-02-17T14:01:59.221Z,8.43
2018-02-17T14:04:26.653Z,8.23
2018-02-17T14:06:54.092Z,8.60
2018-02-17T14:09:21.527Z,8.13
2018-02-17T14:11:49.768Z,9.20
2018-02-17T14:14:17.203Z,10.40
2018-02-17T14:16:44.631Z,8.77
2018-02-17T14:19:12.080Z,9.10
2018-02-17T14:21:40.307Z,9.13
2018-02-17T14:24:07.765Z,9.83
2018-02-17T14:26:35.211Z,8.93
2018-02-17T14:29:02.676Z,10.47
2018-02-17T14:31:30.111Z,9.47
2018-02-17T14:33:57.545Z,10.07
2018-02-17T14:36:24.997Z,10.00
2018-02-17T14:38:53.200Z,9.87
2018-02-17T14:41:20.647Z,10.30
2018-02-17T14:43:48.391Z,9.37
2018-02-17T14:46:16.593Z,9.93
2018-02-17T14:48:44.045Z,10.10
2018-02-17T14:51:11.483Z,9.30
2018-02-17T14:53:39.683Z,9.60
2018-02-17T14:56:07.122Z,10.00
2018-02-17T14:58:34.552Z,10.80
2018-02-17T15:01:03.325Z,9.87
2018-02-17T15:03:30.855Z,9.17
2018-02-17T15:05:58.317Z,8.53
2018-02-17T15:08:25.748Z,8.87
2018-02-17T15:10:53.197Z,10.20
2018-02-17T15:13:20.628Z,8.90
2018-02-17T15:15:48.839Z,9.60
2018-02-17T15:18:16.267Z,10.07
2018-02-17T15:20:44.499Z,9.50
2018-02-17T15:23:11.932Z,8.93
2018-02-17T15:25:39.379Z,10.03
2018-02-17T15:28:06.803Z,9.73
2018-02-17T15:30:35.068Z,9.93
2018-02-17T15:33:02.591Z,10.53
2018-02-17T15:35:30.060Z,9.83
2018-02-17T15:37:57.548Z,9.40
2018-02-17T15:40:24.965Z,10.03
2018-02-17T15:42:52.429Z,10.10
2018-02-17T15:45:19.855Z,9.97
2018-02-17T15:47:47.311Z,8.30
2018-02-17T15:50:14.743Z,8.27
2018-02-17T15:52:43.014Z,9.17
2018-02-17T15:55:10.532Z,9.60
2018-02-17T15:57:37.960Z,8.27
2018-02-17T16:00:05.453Z,8.07
2018-02-17T16:02:32.884Z,8.40
2018-02-17T16:05:00.317Z,8.13
2018-02-17T16:07:27.768Z,8.60
2018-02-17T16:09:55.204Z,8.83
2018-02-17T16:12:23.417Z,8.57
2018-02-17T16:14:50.878Z,9.27
2018-02-17T16:17:18.312Z,7.97
2018-02-17T16:19:45.739Z,8.63
2018-02-17T16:22:13.189Z,9.57
2018-02-17T16:24:40.616Z,9.20
2018-02-17T16:27:08.056Z,9.10
2018-02-17T16:29:35.499Z,8.00
2018-02-17T16:32:02.932Z,8.77
2018-02-17T16:34:31.163Z,8.10
2018-02-17T16:36:58.628Z,9.30
2018-02-17T16:39:26.060Z,8.60
2018-02-17T16:41:53.513Z,8.20
2018-02-17T16:44:20.940Z,8.30
2018-02-17T16:46:49.152Z,8.20
2018-02-17T16:49:16.594Z,9.40
2018-02-17T16:51:44.080Z,8.80
2018-02-17T16:54:11.638Z,8.33
2018-02-17T16:56:39.096Z,10.33
2018-02-17T16:59:06.532Z,9.63
2018-02-17T17:01:34.011Z,9.47
2018-02-17T17:04:02.334Z,9.50
2018-02-17T17:06:30.568Z,8.33
2018-02-17T17:08:58.000Z,8.97
2018-02-17T17:11:25.432Z,8.53
2018-02-17T17:13:52.931Z,9.63
2018-02-17T17:16:20.377Z,9.63
2018-02-17T17:18:47.852Z,8.97
2018-02-17T17:21:15.307Z,9.60
2018-02-17T17:23:42.762Z,9.50
2018-02-17T17:26:10.193Z,9.60
2018-02-17T17:28:37.672Z,9.43
2018-02-17T17:31:05.128Z,9.33
2018-02-17T17:33:32.596Z,9.80
2018-02-17T17:36:00.033Z,9.90
2018-02-17T17:38:27.500Z,10.60
2018-02-17T17:40:54.950Z,9.03
2018-02-17T17:43:22.408Z,10.10
2018-02-17T17:45:49.850Z,9.90
2018-02-17T17:48:17.284Z,10.43
2018-02-17T17:50:44.724Z,9.77
2018-02-17T17:53:12.959Z,10.03
2018-02-17T17:55:40.423Z,12.40
2018-02-17T17:58:07.860Z,12.40
2018-02-17T18:00:35.340Z,15.07
2018-02-17T18:03:03.006Z,16.83
2018-02-17T18:05:30.448Z,20.90
2018-02-17T18:07:57.984Z,21.87
2018-02-17T18:10:25.464Z,21.07
2018-02-17T18:12:52.927Z,21.53
2018-02-17T18:15:20.376Z,22.10
2018-02-17T18:17:47.820Z,23.20
2018-02-17T18:20:15.256Z,20.90
2018-02-17T18:22:43.155Z,21.23
2018-02-17T18:25:10.616Z,23.93
2018-02-17T18:27:38.584Z,23.03
2018-02-17T18:30:06.017Z,20.20
2018-02-17T18:32:33.471Z,13.87
2018-02-17T18:35:00.895Z,17.20
2018-02-17T18:37:29.104Z,12.90
2018-02-17T18:39:56.537Z,18.10
2018-02-17T18:42:24.747Z,15.30
2018-02-17T18:44:52.179Z,17.50
2018-02-17T18:47:19.671Z,11.10
2018-02-17T18:49:47.119Z,11.87
2018-02-17T18:52:14.555Z,16.57
2018-02-17T18:54:42.533Z,15.60
2018-02-17T18:57:09.952Z,11.00
2018-02-17T18:59:38.223Z,10.20
2018-02-17T19:02:05.753Z,10.63
2018-02-17T19:04:33.188Z,22.00
2018-02-17T19:07:00.635Z,20.57
2018-02-17T19:09:28.068Z,23.00
2018-02-17T19:11:56.328Z,17.10
2018-02-17T19:14:23.716Z,11.83
2018-02-17T19:16:51.184Z,11.40
2018-02-17T19:19:18.612Z,10.83
2018-02-17T19:21:46.813Z,12.00
2018-02-17T19:24:14.292Z,11.63
2018-02-17T19:26:41.743Z,10.40
2018-02-17T19:29:09.208Z,10.97
2018-02-17T19:31:36.664Z,10.30
2018-02-17T19:34:04.099Z,9.83
2018-02-17T19:36:31.572Z,10.60
2018-02-17T19:38:59.032Z,10.37
2018-02-17T19:41:26.491Z,11.03
2018-02-17T19:43:53.948Z,10.37
2018-02-17T19:46:21.391Z,12.05
2018-02-17T19:48:48.872Z,10.27
2018-02-17T19:51:16.437Z,10.60
2018-02-17T19:53:43.980Z,9.97
2018-02-17T19:56:11.432Z,14.20
2018-02-17T19:58:38.896Z,15.57
2018-02-17T20:01:06.348Z,17.20
2018-02-17T20:03:34.223Z,10.87
2018-02-17T20:06:01.680Z,10.83
2018-02-17T20:08:29.116Z,10.60
2018-02-17T20:10:56.588Z,10.30
2018-02-17T20:13:24.036Z,10.30
2018-02-17T20:15:51.475Z,9.87
2018-02-17T20:18:18.961Z,9.33
2018-02-17T20:20:46.421Z,10.40
2018-02-17T20:23:13.976Z,9.27
2018-02-17T20:25:41.428Z,11.33
2018-02-17T20:28:08.884Z,10.47
2018-02-17T20:30:36.328Z,12.23
2018-02-17T20:33:03.759Z,17.30
2018-02-17T20:35:31.238Z,17.83
2018-02-17T20:37:58.676Z,12.97
2018-02-17T20:40:26.872Z,10.93
2018-02-17T20:42:54.332Z,10.47
2018-02-17T20:45:21.772Z,10.43
2018-02-17T20:47:49.204Z,10.30
2018-02-17T20:50:17.422Z,11.43
2018-02-17T20:52:44.862Z,11.60
2018-02-17T20:55:12.323Z,11.27
2018-02-17T20:57:39.737Z,11.10
2018-02-17T21:00:08.008Z,12.90
2018-02-17T21:02:35.379Z,10.97
2018-02-17T21:05:03.591Z,11.30
2018-02-17T21:07:31.084Z,12.00
2018-02-17T21:09:58.516Z,12.23
2018-02-17T21:12:25.950Z,12.47
2018-02-17T21:14:53.405Z,11.07
2018-02-17T21:17:20.839Z,12.10
2018-02-17T21:19:49.042Z,11.30
2018-02-17T21:22:16.480Z,12.50
2018-02-17T21:24:43.918Z,11.33
2018-02-17T21:27:12.116Z,11.20
2018-02-17T21:29:39.556Z,11.33
2018-02-17T21:32:07.769Z,12.87
2018-02-17T21:34:35.196Z,11.80
2018-02-17T21:37:02.652Z,10.90
2018-02-17T21:39:30.093Z,10.50
2018-02-17T21:41:58.291Z,11.57
2018-02-17T21:44:25.733Z,11.63
2018-02-17T21:46:53.933Z,12.07
2018-02-17T21:49:21.371Z,11.30
2018-02-17T21:51:49.568Z,11.57
2018-02-17T21:54:17.022Z,11.80
2018-02-17T21:56:44.447Z,13.13
2018-02-17T21:59:12.655Z,13.20
2018-02-17T22:01:40.098Z,14.00
2018-02-17T22:04:07.535Z,14.40
2018-02-17T22:06:35.728Z,14.17
2018-02-17T22:09:03.172Z,15.43
2018-02-17T22:11:31.383Z,13.70
2018-02-17T22:13:58.830Z,14.33
2018-02-17T22:16:26.264Z,13.30
2018-02-17T22:18:54.513Z,12.50
2018-02-17T22:21:21.927Z,12.90
2018-02-17T22:23:49.365Z,11.70
2018-02-17T22:26:16.822Z,10.90
2018-02-17T22:28:44.248Z,12.40
2018-02-17T22:31:12.457Z,10.03
2018-02-17T22:33:39.927Z,10.50
2018-02-17T22:36:07.404Z,11.40
2018-02-17T22:38:34.883Z,12.63
2018-02-17T22:41:02.302Z,11.80
2018-02-17T22:43:29.748Z,12.10
2018-02-17T22:45:57.174Z,14.23
2018-02-17T22:48:25.377Z,16.43
2018-02-17T22:50:52.829Z,11.90
2018-02-17T22:53:20.265Z,12.97
2018-02-17T22:55:48.458Z,11.77
2018-02-17T22:58:15.907Z,11.40
2018-02-17T23:00:43.343Z,10.67
2018-02-17T23:03:11.546Z,10.33
2018-02-17T23:05:39.035Z,11.43
2018-02-17T23:08:06.439Z,12.30
2018-02-17T23:10:34.648Z,11.70
2018-02-17T23:13:02.090Z,11.83
2018-02-17T23:15:29.531Z,10.50
2018-02-17T23:17:56.969Z,11.57
2018-02-17T23:20:25.173Z,10.50
2018-02-17T23:22:52.605Z,12.03
2018-02-17T23:25:20.817Z,12.07
2018-02-17T23:27:48.271Z,10.80
2018-02-17T23:30:15.704Z,9.80
2018-02-17T23:32:43.147Z,10.20
2018-02-17T23:35:11.340Z,9.97
2018-02-17T23:37:38.791Z,11.50
2018-02-17T23:40:06.984Z,9.13
2018-02-17T23:42:34.422Z,10.17
2018-02-17T23:45:01.848Z,9.50
2018-02-17T23:47:29.303Z,9.67
2018-02-17T23:49:56.748Z,9.27
2018-02-17T23:52:24.185Z,9.57
2018-02-17T23:54:51.658Z,9.70
2018-02-17T23:57:19.092Z,10.93
2018-02-17T23:59:46.558Z,9.50
